Government of Jersey

Home Log in

Channel Islands Terminal Aerodrome Forecasts (TAFs)

Jersey Airport - EGJJ

EGJJ 150456Z 1506/1515 13011KT 9999 -RA BKN045 BECMG 1506/1508 8000 RA FEW005 SCT015 BKN030 PROB30 TEMPO 1506/1511 1200 +RADZ BR FEW001 BKN002 BECMG 1511/1514 20015KT 9999 NSW PROB40 TEMPO 1511/1515 3000 +SHRA BKN003 BKN012CB=

Guernsey Airport - EGJB

EGJB 150456Z 1506/1515 13011KT 9999 -RA FEW005 SCT015 BKN030 BECMG 1506/1508 6000 RA FEW003 SCT006 BKN012 PROB40 TEMPO 1506/1511 0600 +RADZ FG BKN000 BECMG 1511/1514 20015KT 9999 NSW PROB30 TEMPO 1511/1515 2000 +SHRA BKN002 BKN012CB=

Alderney Airport - EGJA

EGJA 141851Z 1418/1500 CNL=